createdAt,value
2019-02-28T00:00:01.350Z,0.40
2019-02-28T00:02:32.000Z,0.30
2019-02-28T00:05:05.807Z,0.30
2019-02-28T00:07:33.904Z,0.20
2019-02-28T00:10:03.835Z,0.20
2019-02-28T00:12:33.794Z,0.00
2019-02-28T00:15:04.084Z,0.00
2019-02-28T00:17:34.315Z,0.10
2019-02-28T00:20:04.475Z,-0.10
2019-02-28T00:22:34.409Z,-0.20
2019-02-28T00:25:05.053Z,-0.20
2019-02-28T00:27:35.674Z,-0.20
2019-02-28T00:30:06.925Z,-0.20
2019-02-28T00:32:37.770Z,-0.30
2019-02-28T00:35:12.817Z,-0.30
2019-02-28T00:37:39.622Z,-0.40
2019-02-28T00:40:09.763Z,-0.50
2019-02-28T00:42:39.796Z,-0.60
2019-02-28T00:45:10.401Z,-0.80
2019-02-28T00:47:40.719Z,-0.90
2019-02-28T00:50:10.874Z,-1.10
2019-02-28T00:52:41.184Z,-1.20
2019-02-28T00:55:14.554Z,-1.20
2019-02-28T00:57:43.464Z,-1.10
2019-02-28T01:00:15.489Z,-1.30
2019-02-28T01:02:46.161Z,-1.40
2019-02-28T01:05:16.823Z,-1.20
2019-02-28T01:07:48.126Z,-1.20
2019-02-28T01:10:19.011Z,-1.10
2019-02-28T01:12:53.095Z,-1.10
2019-02-28T01:15:21.127Z,-1.10
2019-02-28T01:17:51.922Z,-1.10
2019-02-28T01:20:21.938Z,-1.10
2019-02-28T01:22:51.953Z,-1.20
2019-02-28T01:25:22.357Z,-1.10
2019-02-28T01:27:53.017Z,-1.10
2019-02-28T01:30:23.645Z,-1.10
2019-02-28T01:32:54.042Z,-1.10
2019-02-28T01:35:23.966Z,-1.10
2019-02-28T01:37:54.184Z,-1.20
2019-02-28T01:40:24.141Z,-1.20
2019-02-28T01:42:54.995Z,-1.10
2019-02-28T01:45:25.490Z,-1.10
2019-02-28T01:47:55.933Z,-1.20
2019-02-28T01:50:25.953Z,-1.20
2019-02-28T01:52:56.144Z,-1.30
2019-02-28T01:55:26.152Z,-1.30
2019-02-28T01:57:56.150Z,-1.10
2019-02-28T02:00:26.597Z,-1.20
2019-02-28T02:02:56.698Z,-1.20
2019-02-28T02:05:26.624Z,-1.30
2019-02-28T02:07:56.950Z,-1.40
2019-02-28T02:10:26.897Z,-1.40
2019-02-28T02:12:56.858Z,-1.40
2019-02-28T02:15:27.227Z,-1.30
2019-02-28T02:17:57.597Z,-1.40
2019-02-28T02:20:27.485Z,-1.40
2019-02-28T02:22:57.807Z,-1.40
2019-02-28T02:25:27.832Z,-1.40
2019-02-28T02:27:57.731Z,-1.50
2019-02-28T02:30:28.486Z,-1.40
2019-02-28T02:32:58.502Z,-1.40
2019-02-28T02:35:28.436Z,-1.50
2019-02-28T02:38:03.661Z,-1.50
2019-02-28T02:40:30.356Z,-1.60
2019-02-28T02:43:00.819Z,-1.70
2019-02-28T02:45:30.807Z,-1.70
2019-02-28T02:48:05.151Z,-1.80
2019-02-28T02:50:35.845Z,-1.90
2019-02-28T02:53:06.454Z,-2.00
2019-02-28T02:55:36.820Z,-2.00
2019-02-28T02:58:07.046Z,-2.00
2019-02-28T03:00:37.169Z,-2.00
2019-02-28T03:03:07.812Z,-2.00
2019-02-28T03:05:38.142Z,-2.00
2019-02-28T03:08:08.076Z,-2.10
2019-02-28T03:10:38.110Z,-2.10
2019-02-28T03:13:08.270Z,-2.00
2019-02-28T03:15:38.235Z,-2.00
2019-02-28T03:18:08.488Z,-2.00
2019-02-28T03:20:41.191Z,-1.90
2019-02-28T03:23:10.534Z,-1.80
2019-02-28T03:25:40.858Z,-1.80
2019-02-28T03:28:10.868Z,-1.70
2019-02-28T03:30:40.788Z,-1.70
2019-02-28T03:33:23.482Z,-1.70
2019-02-28T03:35:44.137Z,-1.70
2019-02-28T03:38:14.734Z,-1.80
2019-02-28T03:40:44.731Z,-1.80
2019-02-28T03:43:14.665Z,-1.70
2019-02-28T03:45:45.179Z,-1.50
2019-02-28T03:48:15.613Z,-1.40
2019-02-28T03:50:45.519Z,-1.40
2019-02-28T03:53:19.494Z,-1.50
2019-02-28T03:55:47.450Z,-1.50
2019-02-28T03:58:18.035Z,-1.70
2019-02-28T04:00:48.123Z,-1.70
2019-02-28T04:03:18.666Z,-1.70
2019-02-28T04:05:48.691Z,-1.80
2019-02-28T04:08:18.731Z,-1.80
2019-02-28T04:10:48.949Z,-1.80
2019-02-28T04:13:19.663Z,-1.80
2019-02-28T04:16:07.603Z,-1.90
2019-02-28T04:18:22.691Z,-2.00
2019-02-28T04:20:52.707Z,-2.00
2019-02-28T04:23:22.673Z,-2.10
2019-02-28T04:25:56.865Z,-2.10
2019-02-28T04:28:24.557Z,-2.10
2019-02-28T04:30:54.542Z,-2.20
2019-02-28T04:33:24.834Z,-2.30
2019-02-28T04:35:56.911Z,-2.30
2019-02-28T04:38:26.547Z,-2.20
2019-02-28T04:40:58.869Z,-2.20
2019-02-28T04:43:28.820Z,-2.20
2019-02-28T04:45:59.111Z,-2.30
2019-02-28T04:48:29.675Z,-2.30
2019-02-28T04:51:02.253Z,-2.30
2019-02-28T04:53:31.633Z,-2.30
2019-02-28T04:56:01.579Z,-2.30
2019-02-28T04:58:31.465Z,-2.20
2019-02-28T05:01:01.848Z,-2.00
2019-02-28T05:03:31.718Z,-2.10
2019-02-28T05:06:01.643Z,-2.20
2019-02-28T05:08:31.713Z,-2.20
2019-02-28T05:11:01.618Z,-2.20
2019-02-28T05:13:31.504Z,-2.10
2019-02-28T05:16:01.799Z,-2.20
2019-02-28T05:18:32.064Z,-2.20
2019-02-28T05:21:02.349Z,-2.10
2019-02-28T05:23:35.836Z,-2.10
2019-02-28T05:26:04.240Z,-2.10
2019-02-28T05:28:34.114Z,-2.10
2019-02-28T05:31:04.079Z,-2.20
2019-02-28T05:33:34.805Z,-2.30
2019-02-28T05:36:04.703Z,-2.30
2019-02-28T05:38:34.853Z,-2.30
2019-02-28T05:41:05.252Z,-2.30
2019-02-28T05:43:35.188Z,-2.40
2019-02-28T05:46:05.091Z,-2.30
2019-02-28T05:48:38.748Z,-2.30
2019-02-28T05:51:07.431Z,-2.40
2019-02-28T05:53:41.254Z,-2.40
2019-02-28T05:56:09.324Z,-2.50
2019-02-28T05:58:39.327Z,-2.50
2019-02-28T06:01:11.994Z,-2.60
2019-02-28T06:03:41.145Z,-2.50
2019-02-28T06:06:11.112Z,-2.50
2019-02-28T06:08:41.072Z,-2.60
2019-02-28T06:11:11.205Z,-2.60
2019-02-28T06:13:41.140Z,-2.60
2019-02-28T06:16:12.418Z,-2.70
2019-02-28T06:18:42.929Z,-2.60
2019-02-28T06:21:12.910Z,-2.70
2019-02-28T06:23:42.858Z,-2.80
2019-02-28T06:26:13.155Z,-2.80
2019-02-28T06:28:43.112Z,-2.80
2019-02-28T06:31:14.392Z,-2.70
2019-02-28T06:33:45.147Z,-2.60
2019-02-28T06:36:15.112Z,-2.70
2019-02-28T06:38:45.010Z,-2.60
2019-02-28T06:41:15.264Z,-2.60
2019-02-28T06:43:45.212Z,-2.60
2019-02-28T06:46:15.144Z,-2.60
2019-02-28T06:48:45.991Z,-2.60
2019-02-28T06:51:16.847Z,-2.50
2019-02-28T06:53:47.711Z,-2.40
2019-02-28T06:56:21.936Z,-2.30
2019-02-28T06:58:49.425Z,-2.30
2019-02-28T07:01:22.669Z,-2.30
2019-02-28T07:03:53.619Z,-2.30
2019-02-28T07:06:23.226Z,-2.30
2019-02-28T07:08:53.381Z,-2.20
2019-02-28T07:11:23.334Z,-2.20
2019-02-28T07:13:53.355Z,-2.20
2019-02-28T07:16:23.647Z,-2.00
2019-02-28T07:18:54.001Z,-2.00
2019-02-28T07:21:24.303Z,-2.00
2019-02-28T07:23:54.233Z,-1.80
2019-02-28T07:26:24.143Z,-1.80
2019-02-28T07:28:54.350Z,-1.70
2019-02-28T07:31:24.769Z,-1.50
2019-02-28T07:33:55.755Z,-1.30
2019-02-28T07:36:25.673Z,-1.20
2019-02-28T07:38:57.213Z,-1.20
2019-02-28T07:41:27.649Z,-1.10
2019-02-28T07:43:59.040Z,-1.00
2019-02-28T07:46:29.308Z,-0.90
2019-02-28T07:49:00.924Z,-0.90
2019-02-28T07:51:31.271Z,-0.70
2019-02-28T07:54:01.677Z,-0.80
2019-02-28T07:56:31.886Z,-0.60
2019-02-28T07:59:05.326Z,-0.40
2019-02-28T08:01:33.669Z,-0.30
2019-02-28T08:04:03.953Z,0.10
2019-02-28T08:06:36.369Z,0.40
2019-02-28T08:09:11.368Z,0.80
2019-02-28T08:11:41.344Z,1.30
2019-02-28T08:14:12.158Z,1.50
2019-02-28T08:16:43.446Z,1.60
2019-02-28T08:19:13.657Z,1.50
2019-02-28T08:21:46.987Z,1.60
2019-02-28T08:24:15.261Z,1.80
2019-02-28T08:26:45.227Z,1.80
2019-02-28T08:29:15.353Z,1.80
2019-02-28T08:31:45.497Z,2.00
2019-02-28T08:34:15.873Z,2.20
2019-02-28T08:36:46.946Z,2.40
2019-02-28T08:39:18.411Z,2.40
2019-02-28T08:41:49.631Z,2.60
2019-02-28T08:44:23.840Z,2.70
2019-02-28T08:46:51.674Z,2.80
2019-02-28T08:49:22.063Z,2.80
2019-02-28T08:51:51.958Z,2.90
2019-02-28T08:54:26.142Z,3.00
2019-02-28T08:56:53.841Z,3.10
2019-02-28T08:59:23.750Z,3.40
2019-02-28T09:01:53.855Z,3.80
2019-02-28T09:04:24.101Z,4.10
2019-02-28T09:06:54.045Z,4.60
2019-02-28T09:09:24.070Z,4.80
2019-02-28T09:11:58.181Z,5.00
2019-02-28T09:14:25.950Z,5.20
2019-02-28T09:16:56.260Z,5.20
2019-02-28T09:19:26.542Z,5.30
2019-02-28T09:21:56.454Z,5.40
2019-02-28T09:24:26.822Z,5.40
2019-02-28T09:26:56.750Z,5.50
2019-02-28T09:29:26.682Z,5.70
2019-02-28T09:31:57.069Z,5.70
2019-02-28T09:34:27.306Z,5.80
2019-02-28T09:36:57.218Z,6.00
2019-02-28T09:39:27.562Z,6.10
2019-02-28T09:41:57.413Z,6.20
2019-02-28T09:44:27.352Z,6.10
2019-02-28T09:46:57.358Z,6.30
2019-02-28T09:49:27.600Z,6.30
2019-02-28T09:51:57.690Z,6.40
2019-02-28T09:54:28.071Z,6.50
2019-02-28T09:56:58.015Z,6.50
2019-02-28T09:59:27.883Z,6.30
2019-02-28T10:02:01.293Z,6.30
2019-02-28T10:04:31.165Z,6.30
2019-02-28T10:07:01.296Z,6.20
2019-02-28T10:09:31.274Z,6.30
2019-02-28T10:12:01.204Z,6.50
2019-02-28T10:14:31.496Z,6.60
2019-02-28T10:17:01.481Z,6.60
2019-02-28T10:19:31.708Z,6.60
2019-02-28T10:22:01.837Z,6.70
2019-02-28T10:24:32.349Z,6.70
2019-02-28T10:27:03.508Z,6.70
2019-02-28T10:29:33.817Z,6.80
2019-02-28T10:32:06.187Z,7.00
2019-02-28T10:34:35.822Z,7.10
2019-02-28T10:37:05.962Z,7.10
2019-02-28T10:39:35.913Z,7.10
2019-02-28T10:42:06.104Z,7.20
2019-02-28T10:44:36.220Z,7.30
2019-02-28T10:47:06.178Z,7.10
2019-02-28T10:49:36.355Z,7.20
2019-02-28T10:52:06.794Z,7.40
2019-02-28T10:54:36.734Z,7.30
2019-02-28T10:57:07.074Z,7.30
2019-02-28T10:59:37.645Z,7.30
2019-02-28T11:02:08.157Z,7.30
2019-02-28T11:04:42.854Z,7.50
2019-02-28T11:07:10.291Z,7.50
2019-02-28T11:09:40.469Z,7.20
2019-02-28T11:12:10.552Z,7.30
2019-02-28T11:14:40.415Z,7.20
2019-02-28T11:17:13.789Z,7.40
2019-02-28T11:19:42.964Z,7.50
2019-02-28T11:22:13.740Z,7.40
2019-02-28T11:24:43.704Z,7.50
2019-02-28T11:27:16.116Z,7.50
2019-02-28T11:29:45.961Z,7.30
2019-02-28T11:32:16.086Z,7.60
2019-02-28T11:34:48.704Z,7.60
2019-02-28T11:37:18.779Z,7.40
2019-02-28T11:39:48.822Z,7.50
2019-02-28T11:42:18.803Z,7.60
2019-02-28T11:44:49.230Z,7.50
2019-02-28T11:47:20.195Z,7.60
2019-02-28T11:49:50.799Z,7.80
2019-02-28T11:52:20.777Z,7.80
2019-02-28T11:54:50.814Z,7.90
2019-02-28T11:57:21.363Z,7.80
2019-02-28T11:59:51.275Z,7.70
2019-02-28T12:02:21.482Z,7.80
2019-02-28T12:04:52.239Z,8.00
2019-02-28T12:07:22.204Z,8.10
2019-02-28T12:09:54.744Z,8.10
2019-02-28T12:12:24.226Z,8.10
2019-02-28T12:14:54.237Z,8.20
2019-02-28T12:17:25.502Z,8.20
2019-02-28T12:19:56.561Z,8.30
2019-02-28T12:22:26.538Z,8.40
2019-02-28T12:24:56.448Z,8.10
2019-02-28T12:27:27.578Z,8.20
2019-02-28T12:29:58.316Z,8.30
2019-02-28T12:32:28.476Z,8.30
2019-02-28T12:35:01.473Z,8.20
2019-02-28T12:37:30.653Z,8.30
2019-02-28T12:40:00.666Z,8.10
2019-02-28T12:42:31.658Z,8.20
2019-02-28T12:45:02.152Z,8.20
2019-02-28T12:47:35.181Z,8.10
2019-02-28T12:50:06.749Z,8.20
2019-02-28T12:52:36.693Z,8.30
2019-02-28T12:55:08.486Z,8.40
2019-02-28T12:57:38.435Z,9.10
2019-02-28T13:00:12.303Z,10.60
2019-02-28T13:02:43.696Z,10.40
2019-02-28T13:05:15.902Z,11.30
2019-02-28T13:07:46.160Z,12.40
2019-02-28T13:10:18.134Z,13.40
2019-02-28T13:12:49.782Z,14.30
2019-02-28T13:15:20.391Z,12.70
2019-02-28T13:17:50.526Z,13.60
2019-02-28T13:20:22.291Z,14.40
2019-02-28T13:22:55.567Z,13.80
2019-02-28T13:25:24.874Z,12.20
2019-02-28T13:27:54.918Z,11.20
2019-02-28T13:30:25.741Z,11.80
2019-02-28T13:32:56.014Z,12.20
2019-02-28T13:35:28.717Z,12.40
2019-02-28T13:38:00.280Z,12.40
2019-02-28T13:40:30.531Z,12.00
2019-02-28T13:43:01.833Z,12.20
2019-02-28T13:45:32.804Z,12.50
2019-02-28T13:48:03.489Z,13.40
2019-02-28T13:50:34.261Z,14.50
2019-02-28T13:53:17.093Z,13.90
2019-02-28T13:55:36.958Z,13.30
2019-02-28T13:58:07.039Z,12.50
2019-02-28T14:00:43.899Z,12.90
2019-02-28T14:03:10.346Z,13.50
2019-02-28T14:05:41.745Z,13.00
2019-02-28T14:08:12.442Z,13.00
2019-02-28T14:10:43.519Z,13.10
2019-02-28T14:13:13.457Z,12.80
2019-02-28T14:15:47.803Z,12.90
2019-02-28T14:18:15.972Z,13.10
2019-02-28T14:20:46.763Z,13.80
2019-02-28T14:23:20.343Z,15.50
2019-02-28T14:25:48.509Z,15.30
2019-02-28T14:28:18.483Z,14.70
2019-02-28T14:30:48.398Z,15.00
2019-02-28T14:33:19.679Z,15.00
2019-02-28T14:35:51.083Z,13.90
2019-02-28T14:38:21.304Z,13.50
2019-02-28T14:40:52.757Z,13.40
2019-02-28T14:43:23.284Z,13.80
2019-02-28T14:45:53.174Z,14.10
2019-02-28T14:48:23.144Z,13.80
2019-02-28T14:50:54.846Z,14.30
2019-02-28T14:53:24.963Z,12.70
2019-02-28T14:55:55.530Z,13.60
2019-02-28T14:58:25.451Z,14.70
2019-02-28T15:00:55.439Z,14.30
2019-02-28T15:03:25.778Z,13.60
2019-02-28T15:05:56.259Z,12.90
2019-02-28T15:08:27.157Z,13.00
2019-02-28T15:10:57.353Z,13.90
2019-02-28T15:13:30.411Z,13.40
2019-02-28T15:15:59.231Z,12.60
2019-02-28T15:18:29.570Z,10.70
2019-02-28T15:20:59.918Z,10.20
2019-02-28T15:23:30.908Z,10.40
2019-02-28T15:26:01.760Z,11.30
2019-02-28T15:28:31.708Z,12.40
2019-02-28T15:31:01.714Z,12.30
2019-02-28T15:33:32.045Z,12.70
2019-02-28T15:36:02.268Z,12.10
2019-02-28T15:38:32.283Z,12.10
2019-02-28T15:41:02.712Z,13.60
2019-02-28T15:43:32.599Z,12.60
2019-02-28T15:46:02.557Z,13.00
2019-02-28T15:48:34.627Z,13.80
2019-02-28T15:51:05.016Z,14.10
2019-02-28T15:53:35.039Z,15.40
2019-02-28T15:56:13.022Z,14.40
2019-02-28T15:58:37.756Z,13.50
2019-02-28T16:01:08.636Z,12.70
2019-02-28T16:03:38.918Z,12.50
2019-02-28T16:06:09.317Z,11.90
2019-02-28T16:08:41.921Z,11.70
2019-02-28T16:11:11.317Z,11.20
2019-02-28T16:13:41.306Z,9.30
2019-02-28T16:16:11.365Z,8.80
2019-02-28T16:18:43.974Z,8.60
2019-02-28T16:21:13.429Z,8.40
2019-02-28T16:23:43.770Z,8.00
2019-02-28T16:26:13.665Z,7.10
2019-02-28T16:28:43.610Z,6.50
2019-02-28T16:31:14.127Z,6.20
2019-02-28T16:33:44.250Z,5.90
2019-02-28T16:36:15.847Z,5.90
2019-02-28T16:38:46.325Z,5.60
2019-02-28T16:41:16.254Z,5.40
2019-02-28T16:43:46.247Z,5.10
2019-02-28T16:46:16.683Z,5.20
2019-02-28T16:48:46.577Z,5.10
2019-02-28T16:51:16.852Z,4.70
2019-02-28T16:53:47.936Z,4.50
2019-02-28T16:56:19.004Z,4.30
2019-02-28T16:58:49.146Z,4.20
2019-02-28T17:01:20.592Z,3.80
2019-02-28T17:03:51.216Z,3.70
2019-02-28T17:06:21.493Z,3.60
2019-02-28T17:09:19.410Z,3.50
2019-02-28T17:11:57.315Z,3.30
2019-02-28T17:14:27.448Z,2.90
2019-02-28T17:17:16.284Z,2.80
2019-02-28T17:19:46.508Z,2.60
2019-02-28T17:22:16.874Z,2.40
2019-02-28T17:24:46.921Z,2.10
2019-02-28T17:27:42.239Z,1.80
2019-02-28T17:30:28.818Z,1.60
2019-02-28T17:32:58.852Z,1.30
2019-02-28T17:35:30.658Z,1.20
2019-02-28T17:38:01.304Z,1.10
2019-02-28T17:40:31.479Z,0.90
2019-02-28T17:43:01.369Z,0.80
2019-02-28T17:45:34.528Z,0.80
2019-02-28T17:48:40.126Z,0.80
2019-02-28T17:51:18.391Z,0.70
2019-02-28T17:54:37.700Z,0.60
2019-02-28T17:57:35.203Z,0.40
2019-02-28T18:00:44.409Z,0.30
2019-02-28T18:03:51.422Z,0.20
2019-02-28T18:07:03.586Z,0.10
2019-02-28T18:10:02.235Z,-0.10
2019-02-28T18:13:04.426Z,-0.20
2019-02-28T18:15:57.071Z,-0.20
2019-02-28T18:19:14.909Z,-0.20
2019-02-28T18:22:24.436Z,-0.30
2019-02-28T18:25:24.392Z,-0.30
2019-02-28T18:28:32.835Z,-0.30
2019-02-28T18:31:10.610Z,-0.30
2019-02-28T18:33:45.032Z,-0.30
2019-02-28T18:36:17.129Z,-0.40
2019-02-28T18:38:47.391Z,-0.40
2019-02-28T18:41:17.274Z,-0.40
2019-02-28T18:43:47.173Z,-0.40
2019-02-28T18:46:17.338Z,-0.40
2019-02-28T18:48:47.232Z,-0.40
2019-02-28T18:51:17.182Z,-0.50
2019-02-28T18:53:47.518Z,-0.70
2019-02-28T18:56:17.700Z,-0.70
2019-02-28T18:58:47.719Z,-0.70
2019-02-28T19:01:18.181Z,-0.70
2019-02-28T19:03:48.114Z,-0.80
2019-02-28T19:06:18.090Z,-0.70
2019-02-28T19:08:48.438Z,-0.80
2019-02-28T19:11:18.805Z,-1.00
2019-02-28T19:13:48.675Z,-1.20
2019-02-28T19:16:19.000Z,-1.20
2019-02-28T19:18:48.864Z,-1.30
2019-02-28T19:21:18.898Z,-1.30
2019-02-28T19:23:49.261Z,-1.20
2019-02-28T19:26:19.766Z,-1.30
2019-02-28T19:28:49.758Z,-1.30
2019-02-28T19:31:20.116Z,-1.20
2019-02-28T19:33:50.038Z,-1.30
2019-02-28T19:36:19.910Z,-1.20
2019-02-28T19:38:50.284Z,-1.10
2019-02-28T19:41:20.834Z,-1.00
2019-02-28T19:43:50.742Z,-1.00
2019-02-28T19:46:21.064Z,-1.00
2019-02-28T19:48:50.990Z,-1.00
2019-02-28T19:51:20.912Z,-1.10
2019-02-28T19:53:51.090Z,-1.00
2019-02-28T19:56:21.443Z,-1.00
2019-02-28T19:58:51.312Z,-0.90
2019-02-28T20:01:21.466Z,-0.90
2019-02-28T20:03:51.813Z,-1.10
2019-02-28T20:06:22.047Z,-1.00
2019-02-28T20:08:52.442Z,-1.10
2019-02-28T20:11:23.162Z,-1.00
2019-02-28T20:13:53.092Z,-0.90
2019-02-28T20:16:23.282Z,-0.90
2019-02-28T20:18:53.664Z,-1.00
2019-02-28T20:21:23.567Z,-0.90
2019-02-28T20:23:53.730Z,-0.90
2019-02-28T20:26:24.095Z,-0.80
2019-02-28T20:28:54.338Z,-0.80
2019-02-28T20:31:24.434Z,-0.80
2019-02-28T20:33:54.682Z,-0.70
2019-02-28T20:36:24.880Z,-0.80
2019-02-28T20:38:54.878Z,-0.80
2019-02-28T20:41:25.225Z,-0.80
2019-02-28T20:43:55.202Z,-0.90
2019-02-28T20:46:25.178Z,-1.00
2019-02-28T20:48:55.477Z,-1.10
2019-02-28T20:51:25.457Z,-1.20
2019-02-28T20:53:55.447Z,-1.10
2019-02-28T20:56:25.969Z,-1.10
2019-02-28T20:58:56.327Z,-1.00
2019-02-28T21:01:26.492Z,-0.90
2019-02-28T21:03:56.736Z,-0.80
2019-02-28T21:06:27.234Z,-0.90
2019-02-28T21:08:57.199Z,-1.00
2019-02-28T21:11:27.276Z,-1.00
2019-02-28T21:13:57.714Z,-1.10
2019-02-28T21:16:27.661Z,-1.10
2019-02-28T21:18:58.279Z,-1.00
2019-02-28T21:21:28.604Z,-1.00
2019-02-28T21:23:58.560Z,-1.00
2019-02-28T21:26:28.472Z,-1.00
2019-02-28T21:28:58.621Z,-0.90
2019-02-28T21:31:28.607Z,-0.90
2019-02-28T21:33:58.522Z,-1.00
2019-02-28T21:36:28.698Z,-1.00
2019-02-28T21:38:58.641Z,-1.00
2019-02-28T21:41:28.573Z,-1.20
2019-02-28T21:43:58.787Z,-1.20
2019-02-28T21:46:28.728Z,-1.20
2019-02-28T21:48:58.658Z,-1.10
2019-02-28T21:51:28.809Z,-1.10
2019-02-28T21:53:58.781Z,-1.20
2019-02-28T21:56:28.708Z,-1.20
2019-02-28T21:58:59.484Z,-1.10
2019-02-28T22:01:29.419Z,-1.10
2019-02-28T22:03:59.358Z,-1.20
2019-02-28T22:06:29.759Z,-1.20
2019-02-28T22:08:59.685Z,-1.20
2019-02-28T22:11:29.620Z,-1.20
2019-02-28T22:14:00.095Z,-1.30
2019-02-28T22:16:30.067Z,-1.30
2019-02-28T22:18:59.951Z,-1.30
2019-02-28T22:21:30.151Z,-1.20
2019-02-28T22:24:00.102Z,-1.20
2019-02-28T22:26:30.002Z,-1.20
2019-02-28T22:29:00.208Z,-1.30
2019-02-28T22:31:37.953Z,-1.30
2019-02-28T22:34:14.944Z,-1.20
2019-02-28T22:36:45.887Z,-1.20
2019-02-28T22:39:15.822Z,-1.20
2019-02-28T22:41:45.970Z,-1.30
2019-02-28T22:44:16.361Z,-1.20
2019-02-28T22:46:46.387Z,-1.10
2019-02-28T22:49:16.523Z,-1.10
2019-02-28T22:51:46.505Z,-1.10
2019-02-28T22:54:16.390Z,-1.10
2019-02-28T22:56:46.672Z,-1.10
2019-02-28T22:59:16.889Z,-1.10
2019-02-28T23:01:47.135Z,-1.00
2019-02-28T23:04:17.047Z,-1.00
2019-02-28T23:06:46.979Z,-0.90
2019-02-28T23:09:17.281Z,-0.90
2019-02-28T23:11:47.326Z,-1.00
2019-02-28T23:14:17.595Z,-1.00
2019-02-28T23:16:47.845Z,-1.00
2019-02-28T23:19:17.731Z,-0.90
2019-02-28T23:21:47.664Z,-0.80
2019-02-28T23:24:18.009Z,-0.90
2019-02-28T23:27:30.752Z,-1.00
2019-02-28T23:30:29.115Z,-1.00
2019-02-28T23:33:07.767Z,-1.00
2019-02-28T23:35:40.915Z,-0.90
2019-02-28T23:38:10.963Z,-0.90
2019-02-28T23:40:40.866Z,-1.00
2019-02-28T23:43:11.183Z,-1.10
2019-02-28T23:45:41.576Z,-1.00
2019-02-28T23:48:11.490Z,-0.90
2019-02-28T23:50:41.952Z,-0.90
2019-02-28T23:53:11.915Z,-0.90
2019-02-28T23:55:41.830Z,-0.90
2019-02-28T23:58:12.112Z,-0.80
